Time;durP1;ratioP1;P1;durP2;ratioP2;P2;SDS_P1;SDS_P2;PMS_P1;PMS_P2;Temp;Humidity;BMP_temperature;BMP_pressure;BME280_temperature;BME280_humidity;BME280_pressure;Samples;Min_cycle;Max_cycle;Signal;HPM_P1;HPM_P2
2021/12/14 00:00:31;;;;;;;4.50;2.17;;;;;;;12.74;85.46;102088.97;7395058;19;20019;-69
2021/12/14 00:02:58;;;;;;;6.32;2.78;;;;;;;12.78;86.10;102100.94;7396009;19;20021;-68
2021/12/14 00:05:28;;;;;;;4.72;1.58;;;;;;;12.80;86.62;102101.59;7395873;19;20019;-67
2021/12/14 00:08:00;;;;;;;5.18;1.38;;;;;;;12.77;86.64;102084.25;7391620;19;20018;-67
2021/12/14 00:13:21;;;;;;;14.63;5.38;;;;;;;12.82;86.34;102097.03;7394405;19;20038;-67
2021/12/14 00:15:50;;;;;;;7.78;2.08;;;;;;;12.86;86.41;102096.63;7391218;19;20660;-68
2021/12/14 00:18:18;;;;;;;11.02;4.93;;;;;;;12.87;85.96;102102.75;7391982;19;20373;-68
2021/12/14 00:20:51;;;;;;;8.20;2.00;;;;;;;12.84;86.35;102098.59;7393064;19;20010;-67
2021/12/14 00:25:56;;;;;;;8.18;2.50;;;;;;;12.83;85.73;102094.28;7379682;19;20515;-67
2021/12/14 00:28:30;;;;;;;13.85;5.65;;;;;;;12.86;86.84;102079.94;7388248;19;20455;-67
2021/12/14 00:31:00;;;;;;;8.38;2.40;;;;;;;12.82;86.66;102079.38;7394167;19;20007;-67
2021/12/14 00:33:33;;;;;;;17.13;3.13;;;;;;;12.84;86.57;102085.38;7389587;19;20014;-66
2021/12/14 00:36:03;;;;;;;15.18;7.18;;;;;;;12.80;86.76;102081.31;7394724;19;20018;-67
2021/12/14 00:38:35;;;;;;;7.57;2.22;;;;;;;12.81;87.51;102074.22;7391417;19;20014;-68
2021/12/14 00:41:10;;;;;;;25.15;7.70;;;;;;;12.81;87.73;102072.44;7393726;19;20365;-68
2021/12/14 00:43:38;;;;;;;26.92;5.40;;;;;;;12.82;87.68;102081.19;7393975;19;20024;-67
2021/12/14 00:46:06;;;;;;;6.43;2.50;;;;;;;12.81;87.58;102075.06;7390838;19;20010;-68
2021/12/14 00:48:33;;;;;;;5.10;2.17;;;;;;;12.80;87.27;102067.28;7389678;19;20413;-66
2021/12/14 00:51:03;;;;;;;9.02;3.67;;;;;;;12.73;86.73;102069.66;7391668;19;20049;-67
2021/12/14 00:53:31;;;;;;;8.32;2.90;;;;;;;12.76;87.01;102071.16;7395484;19;20552;-67
2021/12/14 00:56:03;;;;;;;10.02;2.42;;;;;;;12.75;87.21;102085.34;7380209;19;20661;-67
2021/12/14 00:58:30;;;;;;;6.68;2.78;;;;;;;12.72;87.26;102086.44;7389437;19;20029;-66
2021/12/14 01:01:03;;;;;;;9.10;3.72;;;;;;;12.72;87.71;102090.91;7395563;19;20023;-66
2021/12/14 01:03:36;;;;;;;8.75;2.13;;;;;;;12.71;87.39;102086.59;7389656;19;20018;-68
2021/12/14 01:06:10;;;;;;;7.53;2.63;;;;;;;12.70;87.88;102083.09;7390896;19;20014;-68
2021/12/14 01:08:40;;;;;;;10.52;2.80;;;;;;;12.67;88.14;102090.47;7392340;19;20084;-68
2021/12/14 01:11:15;;;;;;;7.95;2.65;;;;;;;12.64;87.98;102091.59;7393755;19;20267;-66
2021/12/14 01:13:56;;;;;;;23.27;7.03;;;;;;;12.67;88.87;102098.38;7388977;19;20169;-67
2021/12/14 01:16:34;;;;;;;8.40;2.60;;;;;;;12.70;89.70;102106.03;7389762;19;20037;-67
2021/12/14 01:21:58;;;;;;;5.25;2.35;;;;;;;12.70;88.52;102108.66;7388576;19;20011;-68
2021/12/14 01:27:06;;;;;;;19.73;6.97;;;;;;;12.70;88.93;102101.59;7377256;19;20034;-66
2021/12/14 01:29:37;;;;;;;7.50;2.35;;;;;;;12.67;88.21;102103.66;7390201;19;20114;-66
2021/12/14 01:32:10;;;;;;;9.18;3.40;;;;;;;12.62;88.32;102108.53;7391756;19;20023;-72
2021/12/14 01:34:38;;;;;;;6.10;1.95;;;;;;;12.62;88.65;102114.63;7388905;19;20015;-67
2021/12/14 01:37:12;;;;;;;19.10;6.05;;;;;;;12.60;88.63;102113.09;7391598;19;20015;-66
2021/12/14 01:39:48;;;;;;;7.50;2.65;;;;;;;12.61;88.92;102114.75;7391110;19;20014;-68
2021/12/14 01:42:20;;;;;;;9.18;3.28;;;;;;;12.65;88.99;102113.53;7391420;19;20019;-68
2021/12/14 01:44:53;;;;;;;7.00;2.20;;;;;;;12.65;89.18;102108.25;7390423;19;20024;-69
2021/12/14 01:47:25;;;;;;;7.65;2.72;;;;;;;12.63;88.84;102118.13;7388990;19;20027;-67
2021/12/14 01:49:52;;;;;;;9.00;4.03;;;;;;;12.66;88.78;102117.84;7392010;19;20014;-67
2021/12/14 01:52:25;;;;;;;14.60;6.97;;;;;;;12.68;89.15;102118.56;7392015;19;20006;-66
2021/12/14 01:54:57;;;;;;;8.52;3.00;;;;;;;12.69;89.30;102118.44;7388064;19;20010;-67
2021/12/14 01:57:28;;;;;;;12.60;5.15;;;;;;;12.71;89.06;102123.56;7376432;19;20057;-67
2021/12/14 01:59:58;;;;;;;8.13;2.83;;;;;;;12.70;88.98;102122.72;7388601;19;20010;-68
2021/12/14 02:02:34;;;;;;;6.35;2.65;;;;;;;12.67;88.41;102120.34;7392302;19;20015;-67
2021/12/14 02:05:07;;;;;;;19.58;7.50;;;;;;;12.71;88.88;102126.19;7388421;19;20011;-67
2021/12/14 02:07:37;;;;;;;9.15;3.20;;;;;;;12.77;88.85;102130.94;7387653;19;20070;-67
2021/12/14 02:10:14;;;;;;;7.95;1.83;;;;;;;12.76;88.16;102132.75;7391248;19;20039;-66
2021/12/14 02:12:43;;;;;;;6.65;2.28;;;;;;;12.71;88.03;102131.47;7388899;19;20035;-68
2021/12/14 02:15:18;;;;;;;7.82;2.38;;;;;;;12.70;88.47;102133.28;7390242;19;20459;-67
2021/12/14 02:17:46;;;;;;;9.05;3.72;;;;;;;12.74;88.10;102141.78;7390611;19;20015;-67
2021/12/14 02:20:20;;;;;;;5.32;2.70;;;;;;;12.76;87.97;102134.53;7390211;19;20010;-66
2021/12/14 02:22:48;;;;;;;13.50;4.90;;;;;;;12.75;88.22;102144.28;7387014;19;20016;-66
2021/12/14 02:25:16;;;;;;;11.00;3.15;;;;;;;12.79;89.14;102135.13;7387706;19;20006;-68
2021/12/14 02:27:47;;;;;;;4.80;2.00;;;;;;;12.79;88.41;102137.78;7388715;19;20566;-67
2021/12/14 02:30:19;;;;;;;10.73;3.15;;;;;;;12.84;88.78;102140.00;7379684;19;20433;-67
2021/12/14 02:32:47;;;;;;;7.32;2.63;;;;;;;12.81;87.90;102140.25;7391074;19;20010;-67
2021/12/14 02:35:19;;;;;;;9.45;4.07;;;;;;;12.82;88.37;102137.50;7386679;19;20090;-68
2021/12/14 02:37:51;;;;;;;10.20;2.42;;;;;;;12.80;88.27;102138.59;7388646;19;20324;-68
2021/12/14 02:40:32;;;;;;;9.85;2.45;;;;;;;12.78;87.76;102129.97;7390885;19;20017;-67
2021/12/14 02:43:01;;;;;;;7.50;3.28;;;;;;;12.74;87.62;102124.13;7386286;19;20168;-66
2021/12/14 02:45:29;;;;;;;6.60;2.08;;;;;;;12.76;87.86;102126.63;7389602;19;20811;-66
2021/12/14 02:47:56;;;;;;;17.25;6.28;;;;;;;12.79;88.38;102126.38;7390581;19;20032;-67
2021/12/14 02:50:28;;;;;;;6.50;2.05;;;;;;;12.81;88.36;102129.69;7388836;19;20010;-68
2021/12/14 02:52:58;;;;;;;17.50;6.82;;;;;;;12.80;88.51;102131.50;7388334;19;20412;-67
2021/12/14 02:55:29;;;;;;;4.75;2.25;;;;;;;12.85;89.09;102133.72;7387007;19;20594;-69
2021/12/14 02:58:05;;;;;;;5.93;1.95;;;;;;;12.82;88.13;102131.38;7390381;19;20366;-68
2021/12/14 03:00:36;;;;;;;15.90;6.57;;;;;;;12.85;88.67;102133.72;7372629;19;20018;-67
2021/12/14 03:03:06;;;;;;;11.35;2.88;;;;;;;12.85;88.79;102125.81;7391961;19;20002;-67
2021/12/14 03:05:38;;;;;;;9.43;4.18;;;;;;;12.86;88.66;102124.84;7386832;19;20413;-67
2021/12/14 03:08:13;;;;;;;9.75;3.10;;;;;;;12.88;88.71;102128.19;7386884;19;20017;-67
2021/12/14 03:13:18;;;;;;;8.68;3.92;;;;;;;12.84;87.92;102125.00;7391074;19;20010;-67
2021/12/14 03:15:52;;;;;;;6.43;2.63;;;;;;;12.85;88.19;102131.09;7386030;19;20099;-68
2021/12/14 03:18:24;;;;;;;6.13;2.03;;;;;;;12.85;88.05;102131.94;7389045;19;20023;-67
2021/12/14 03:20:57;;;;;;;7.43;2.22;;;;;;;12.88;87.96;102140.56;7395934;19;20070;-67
2021/12/14 03:23:29;;;;;;;;;;;;;;;12.91;88.23;102135.84;7396175;19;20098;-67
2021/12/14 03:26:01;;;;;;;8.07;2.85;;;;;;;12.91;89.25;102143.75;7396697;19;19978;-67
2021/12/14 03:28:33;;;;;;;7.50;2.63;;;;;;;12.89;88.79;102142.25;7396208;19;20010;-68
2021/12/14 03:31:05;;;;;;;7.55;2.97;;;;;;;12.87;88.54;102145.00;7378733;19;20066;-68
2021/12/14 03:33:35;;;;;;;;;;;;;;;12.90;88.42;102143.94;7397878;19;20460;-68
2021/12/14 03:36:08;;;;;;;4.93;2.28;;;;;;;12.88;88.34;102143.22;7393848;19;19982;-67
2021/12/14 03:38:41;;;;;;;7.57;2.42;;;;;;;12.86;88.80;102144.19;7394259;19;20097;-69
2021/12/14 03:41:14;;;;;;;15.15;5.00;;;;;;;12.88;88.65;102133.47;7397371;19;20018;-67
2021/12/14 03:43:50;;;;;;;11.85;4.93;;;;;;;12.89;89.33;102135.16;7391594;19;20010;-69
2021/12/14 03:46:18;;;;;;;8.13;2.85;;;;;;;12.91;89.21;102140.28;7393334;19;20733;-66
2021/12/14 03:48:45;;;;;;;10.73;3.90;;;;;;;12.93;89.50;102139.19;7395081;19;20487;-67
2021/12/14 03:51:13;;;;;;;5.30;2.03;;;;;;;12.93;89.02;102139.19;7396070;19;19999;-68
2021/12/14 03:53:40;;;;;;;5.88;2.38;;;;;;;12.92;88.53;102129.59;7393173;19;20080;-66
2021/12/14 03:56:08;;;;;;;6.82;2.40;;;;;;;12.92;88.59;102124.31;7395505;19;20507;-67
2021/12/14 03:58:42;;;;;;;5.07;2.10;;;;;;;12.92;88.17;102118.19;7394082;19;20755;-68
2021/12/14 04:01:15;;;;;;;9.40;3.88;;;;;;;12.92;88.52;102116.38;7377551;19;20084;-67
2021/12/14 04:03:45;;;;;;;6.32;3.00;;;;;;;12.91;88.54;102124.44;7394289;19;20018;-67
2021/12/14 04:06:13;;;;;;;16.27;6.03;;;;;;;12.93;88.68;102115.41;7394450;19;20120;-68
2021/12/14 04:08:40;;;;;;;8.43;3.30;;;;;;;12.97;89.46;102124.72;7394921;19;20451;-69
2021/12/14 04:11:09;;;;;;;6.10;2.47;;;;;;;12.99;89.06;102137.81;7396167;19;20043;-67
2021/12/14 04:13:40;;;;;;;11.88;4.90;;;;;;;13.00;88.84;102147.44;7391723;19;20078;-67
2021/12/14 04:16:12;;;;;;;5.60;2.38;;;;;;;13.02;88.33;102145.47;7394203;19;20074;-67
2021/12/14 04:18:41;;;;;;;18.05;5.65;;;;;;;13.02;87.97;102140.19;7394484;19;20046;-68
2021/12/14 04:21:12;;;;;;;8.15;2.60;;;;;;;13.05;88.33;102143.41;7393897;19;20021;-67
2021/12/14 04:23:47;;;;;;;8.07;2.20;;;;;;;13.01;88.11;102135.84;7393511;19;20347;-68
2021/12/14 04:26:16;;;;;;;8.55;3.78;;;;;;;13.00;88.44;102156.19;7391295;19;20022;-67
2021/12/14 04:28:48;;;;;;;9.00;3.08;;;;;;;13.02;88.89;102153.38;7395771;19;20532;-67
2021/12/14 04:31:18;;;;;;;14.93;4.32;;;;;;;13.05;88.79;102156.63;7382259;19;20010;-69
2021/12/14 04:33:46;;;;;;;5.97;2.30;;;;;;;13.01;88.45;102152.53;7389565;19;20106;-67
2021/12/14 04:36:19;;;;;;;12.15;4.30;;;;;;;13.03;88.28;102152.41;7391195;19;20010;-67
2021/12/14 04:54:01;;;;;;;5.25;1.77;;;;;;;13.02;88.61;102162.16;7393345;19;20449;-68
2021/12/14 04:56:33;;;;;;;12.25;3.42;;;;;;;13.05;89.40;102158.41;7391683;19;20023;-67
2021/12/14 04:59:10;;;;;;;8.25;2.35;;;;;;;13.01;89.00;102154.34;7391870;19;20400;-68
2021/12/14 05:01:44;;;;;;;7.15;2.70;;;;;;;13.02;89.20;102142.81;7387273;19;20422;-66
2021/12/14 05:04:18;;;;;;;6.43;2.40;;;;;;;13.03;89.23;102155.06;7389171;19;20015;-68
2021/12/14 05:06:50;;;;;;;36.42;7.60;;;;;;;13.03;88.98;102152.41;7393607;19;20013;-67
2021/12/14 05:09:27;;;;;;;10.25;3.22;;;;;;;13.04;88.99;102147.00;7393456;19;20011;-67
2021/12/14 05:12:01;;;;;;;5.55;2.28;;;;;;;13.05;88.69;102158.41;7393978;19;20007;-68
2021/12/14 05:14:29;;;;;;;8.40;3.50;;;;;;;13.03;89.09;102152.41;7391965;19;20018;-67
2021/12/14 05:17:01;;;;;;;9.80;2.20;;;;;;;13.01;88.90;102149.91;7391096;19;20031;-67
2021/12/14 05:19:31;;;;;;;8.52;1.85;;;;;;;13.04;89.30;102147.00;7391218;19;20074;-67
2021/12/14 05:22:05;;;;;;;7.75;2.13;;;;;;;13.06;89.69;102146.84;7391110;19;20010;-66
2021/12/14 05:24:32;;;;;;;10.50;4.15;;;;;;;13.06;89.11;102158.25;7393189;19;20147;-67
2021/12/14 05:27:04;;;;;;;7.93;2.35;;;;;;;13.09;89.78;102162.47;7390747;19;20074;-68
2021/12/14 05:29:34;;;;;;;8.15;2.50;;;;;;;13.06;89.29;102162.72;7391359;19;20010;-67
2021/12/14 05:32:04;;;;;;;6.40;2.63;;;;;;;13.06;89.09;102163.53;7388510;19;20082;-67
2021/12/14 05:34:36;;;;;;;6.10;2.10;;;;;;;13.10;89.41;102151.75;7376274;19;20082;-66
2021/12/14 05:37:05;;;;;;;11.77;6.40;;;;;;;13.11;89.17;102157.84;7388107;19;20407;-67
2021/12/14 05:44:41;;;;;;;6.97;3.30;;;;;;;13.07;88.66;102159.09;7389223;19;20116;-67
2021/12/14 05:47:16;;;;;;;7.97;2.42;;;;;;;13.10;89.12;102161.50;7389425;19;20017;-68
2021/12/14 05:49:47;;;;;;;24.20;4.18;;;;;;;13.07;88.64;102159.09;7390982;19;20013;-69
2021/12/14 05:52:22;;;;;;;9.05;2.60;;;;;;;13.09;89.39;102151.88;7391679;19;20118;-67
2021/12/14 05:54:50;;;;;;;4.93;1.85;;;;;;;13.07;88.83;102152.00;7388483;19;20010;-67
2021/12/14 05:57:25;;;;;;;7.13;2.08;;;;;;;13.06;88.87;102152.97;7389532;19;20011;-67
2021/12/14 05:59:53;;;;;;;7.88;2.10;;;;;;;13.07;89.14;102165.22;7391593;19;20135;-68
2021/12/14 06:02:23;;;;;;;9.30;2.60;;;;;;;13.09;88.95;102167.75;7391773;19;20015;-68
2021/12/14 06:04:52;;;;;;;6.22;1.60;;;;;;;13.09;88.97;102163.28;7375101;19;20370;-67
2021/12/14 06:07:21;;;;;;;8.68;3.28;;;;;;;13.07;88.85;102159.09;7392761;19;20035;-68
2021/12/14 06:09:51;;;;;;;7.68;1.80;;;;;;;13.07;89.56;102162.59;7391673;19;20006;-68
2021/12/14 06:12:23;;;;;;;8.02;2.03;;;;;;;13.08;89.51;102164.25;7388241;19;20137;-66
2021/12/14 06:14:54;;;;;;;13.45;6.05;;;;;;;13.09;89.89;102165.94;7387947;19;20082;-67
2021/12/14 06:17:29;;;;;;;15.18;2.85;;;;;;;13.08;89.51;102174.00;7389677;19;20014;-67
2021/12/14 06:20:04;;;;;;;11.75;4.47;;;;;;;13.04;89.30;102170.78;7390082;19;20089;-68
2021/12/14 06:22:32;;;;;;;13.30;3.28;;;;;;;13.05;89.77;102176.91;7387726;19;20003;-67
2021/12/14 06:25:04;;;;;;;8.43;2.35;;;;;;;13.01;89.58;102172.84;7394175;19;20018;-67
2021/12/14 06:27:33;;;;;;;11.35;4.20;;;;;;;12.99;89.19;102174.81;7390497;19;20081;-66
2021/12/14 06:30:03;;;;;;;5.60;2.05;;;;;;;12.97;89.37;102174.94;7389509;19;20019;-68
2021/12/14 06:32:38;;;;;;;9.70;2.95;;;;;;;12.96;89.58;102173.25;7388362;19;20006;-66
2021/12/14 06:35:11;;;;;;;6.85;1.95;;;;;;;12.98;90.03;102176.63;7373648;19;20493;-67
2021/12/14 06:37:53;;;;;;;11.30;1.80;;;;;;;12.96;89.77;102181.19;7388404;19;20018;-66
2021/12/14 06:40:26;;;;;;;7.45;2.17;;;;;;;12.95;90.45;102182.19;7386585;19;20035;-68
2021/12/14 06:42:54;;;;;;;;;;;;;;;12.96;90.17;102191.75;7389087;19;20020;-67
2021/12/14 06:45:27;;;;;;;18.85;6.10;;;;;;;12.94;91.06;102185.78;7387422;19;20312;-67
2021/12/14 06:48:00;;;;;;;7.80;2.25;;;;;;;12.90;90.34;102194.91;7389690;19;20092;-66
2021/12/14 06:50:33;;;;;;;12.25;5.35;;;;;;;12.87;90.53;102192.56;7392560;19;20006;-67
2021/12/14 06:53:09;;;;;;;6.70;2.45;;;;;;;12.88;91.16;102190.75;7389349;19;20014;-68
2021/12/14 06:55:38;;;;;;;6.57;1.92;;;;;;;12.83;90.55;102194.66;7397034;19;20011;-65
2021/12/14 06:58:15;;;;;;;7.57;2.90;;;;;;;12.88;91.12;102196.03;7396927;19;20035;-66
2021/12/14 07:00:47;;;;;;;5.07;2.30;;;;;;;12.90;90.81;102204.69;7396008;19;20007;-68
2021/12/14 07:03:15;;;;;;;15.25;6.78;;;;;;;12.86;90.73;102199.66;7397377;19;20018;-67
2021/12/14 07:05:46;;;;;;;9.32;2.22;;;;;;;12.86;91.05;102201.44;7376646;19;20452;-67
2021/12/14 07:08:22;;;;;;;11.10;4.07;;;;;;;12.86;90.71;102190.88;7394250;19;20019;-67
2021/12/14 07:10:49;;;;;;;7.63;3.47;;;;;;;12.91;91.31;102188.69;7396573;19;20002;-69
2021/12/14 07:13:21;;;;;;;7.18;2.35;;;;;;;12.92;90.93;102195.63;7393322;19;20062;-66
2021/12/14 07:15:51;;;;;;;15.18;5.00;;;;;;;12.94;90.61;102193.72;7397132;19;20369;-66
2021/12/14 07:18:25;;;;;;;9.38;2.22;;;;;;;12.96;90.50;102201.47;7396692;19;20006;-67
2021/12/14 07:20:53;;;;;;;14.68;6.15;;;;;;;12.98;90.58;102197.75;7396334;19;20023;-67
2021/12/14 07:23:25;;;;;;;7.97;2.65;;;;;;;13.02;91.32;102198.31;7395250;19;20023;-66
2021/12/14 07:25:56;;;;;;;;;;;;;;;13.01;90.88;102210.69;7395795;19;20017;-67
2021/12/14 07:28:29;;;;;;;12.63;4.40;;;;;;;12.98;90.87;102216.25;7393805;19;19917;-67
2021/12/14 07:31:04;;;;;;;9.15;2.40;;;;;;;13.02;91.08;102212.34;7395586;19;20019;-66
2021/12/14 07:33:35;;;;;;;10.43;2.95;;;;;;;13.04;90.17;102215.72;7391546;19;20033;-67
2021/12/14 07:36:08;;;;;;;14.23;3.47;;;;;;;13.07;90.20;102220.72;7380260;19;20015;-67
2021/12/14 07:38:40;;;;;;;15.02;7.40;;;;;;;13.09;90.20;102224.06;7393213;19;20371;-69
2021/12/14 07:41:13;;;;;;;8.52;2.95;;;;;;;13.07;90.24;102233.94;7392312;19;20014;-67
2021/12/14 07:43:43;;;;;;;11.68;2.53;;;;;;;13.08;89.85;102229.47;7395844;19;20025;-68
2021/12/14 07:46:15;;;;;;;16.73;7.72;;;;;;;13.10;90.40;102233.69;7396555;19;20037;-67
2021/12/14 07:48:47;;;;;;;10.60;3.42;;;;;;;13.16;90.54;102238.44;7393910;19;20022;-68
2021/12/14 07:51:17;;;;;;;50.13;9.63;;;;;;;13.18;90.16;102233.88;7393533;19;20022;-67
2021/12/14 07:53:47;;;;;;;10.82;2.60;;;;;;;13.21;91.46;102244.16;7395108;19;20016;-69
2021/12/14 07:56:21;;;;;;;10.63;2.47;;;;;;;13.18;90.22;102241.78;7395943;19;20013;-67
2021/12/14 07:58:48;;;;;;;11.80;3.47;;;;;;;13.18;90.35;102241.78;7395223;19;20096;-67
2021/12/14 08:01:16;;;;;;;13.10;3.42;;;;;;;13.21;90.43;102244.16;7396575;19;20014;-68
2021/12/14 08:03:44;;;;;;;19.73;8.18;;;;;;;13.21;89.79;102253.88;7394462;19;20022;-69
2021/12/14 08:06:14;;;;;;;9.93;2.78;;;;;;;13.22;90.31;102243.19;7380722;19;20624;-68
2021/12/14 08:08:45;;;;;;;44.67;10.05;;;;;;;13.22;89.82;102240.53;7388212;19;20500;-68
2021/12/14 08:13:50;;;;;;;11.10;3.05;;;;;;;13.25;90.05;102250.88;7392604;19;20030;-68
2021/12/14 08:16:21;;;;;;;15.32;3.38;;;;;;;13.24;89.76;102243.91;7393577;19;20010;-72
2021/12/14 08:18:52;;;;;;;9.45;2.05;;;;;;;13.18;89.68;102246.25;7394033;19;20018;-68
2021/12/14 08:21:25;;;;;;;10.40;4.45;;;;;;;13.18;89.60;102244.44;7393362;19;20017;-68
2021/12/14 08:23:58;;;;;;;10.68;3.05;;;;;;;13.19;90.43;102243.47;7393156;19;20041;-65
2021/12/14 08:26:29;;;;;;;8.27;2.53;;;;;;;13.22;90.03;102253.75;7394583;19;20029;-67
2021/12/14 08:29:06;;;;;;;15.82;5.78;;;;;;;13.28;90.66;102252.38;7391582;19;20006;-69
2021/12/14 08:31:37;;;;;;;8.65;2.35;;;;;;;13.28;89.90;102262.97;7392482;19;20387;-68
2021/12/14 08:34:08;;;;;;;16.95;3.80;;;;;;;13.31;90.30;102264.53;7393700;19;20189;-68
2021/12/14 08:36:42;;;;;;;10.27;4.18;;;;;;;13.33;90.49;102266.03;7393129;19;20096;-67
2021/12/14 08:39:14;;;;;;;14.45;6.32;;;;;;;13.36;89.87;102257.81;7391898;19;20581;-66
2021/12/14 08:41:50;;;;;;;11.65;3.13;;;;;;;13.39;90.27;102272.59;7392227;19;20011;-67
2021/12/14 08:44:34;;;;;;;21.08;6.53;;;;;;;13.39;90.09;102267.31;7391268;19;20019;-66
2021/12/14 08:47:07;;;;;;;8.65;2.88;;;;;;;13.42;90.46;102267.03;7388149;19;20085;-67
2021/12/14 08:49:36;;;;;;;9.45;4.65;;;;;;;13.41;90.20;102266.19;7391867;19;20007;-68
2021/12/14 08:52:05;;;;;;;12.18;3.38;;;;;;;13.36;89.47;102270.25;7365546;19;20048;-68
2021/12/14 08:54:35;;;;;;;17.85;5.22;;;;;;;13.42;91.38;102269.66;7385879;19;20011;-69
2021/12/14 08:57:13;;;;;;;16.10;3.00;;;;;;;13.61;94.56;102273.19;7393383;19;20014;-67
2021/12/14 08:59:45;;;;;;;20.48;3.70;;;;;;;13.70;92.78;102271.56;7392126;19;20340;-67
2021/12/14 09:02:15;;;;;;;10.52;3.22;;;;;;;13.80;92.67;102263.63;7393000;19;20106;-66
2021/12/14 09:04:50;;;;;;;11.20;3.05;;;;;;;13.95;93.06;102273.66;7393168;19;20030;-67
2021/12/14 09:07:23;;;;;;;15.05;3.45;;;;;;;14.04;91.05;102269.34;7391860;19;20126;-68
2021/12/14 09:09:52;;;;;;;8.20;2.65;;;;;;;14.07;89.58;102272.53;7391556;19;20476;-66
2021/12/14 09:12:24;;;;;;;12.60;4.20;;;;;;;14.04;87.93;102275.47;7392323;19;20015;-69
2021/12/14 09:14:53;;;;;;;17.60;3.10;;;;;;;13.96;87.42;102263.91;7393347;19;20451;-68
2021/12/14 09:17:23;;;;;;;16.75;6.60;;;;;;;13.91;87.49;102280.22;7388666;19;20014;-68
2021/12/14 09:19:58;;;;;;;11.73;4.47;;;;;;;13.89;88.24;102274.22;7393132;19;20011;-67
2021/12/14 09:22:33;;;;;;;16.63;3.47;;;;;;;13.91;88.39;102274.91;7390754;19;20074;-67
2021/12/14 09:25:05;;;;;;;148.43;22.15;;;;;;;13.98;90.78;102272.53;7389683;19;20067;-69
2021/12/14 09:27:35;;;;;;;25.08;10.55;;;;;;;14.01;92.20;102274.91;7393328;19;20010;-68
2021/12/14 09:30:05;;;;;;;12.52;3.65;;;;;;;13.99;90.94;102283.00;7389716;19;20011;-69
2021/12/14 09:32:34;;;;;;;14.32;5.95;;;;;;;13.94;90.00;102273.78;7392320;19;20022;-67
2021/12/14 09:35:05;;;;;;;10.65;3.00;;;;;;;13.89;89.14;102283.94;7390636;19;20010;-67
2021/12/14 09:37:32;;;;;;;20.67;8.13;;;;;;;13.86;88.95;102278.94;7389894;19;20058;-67
2021/12/14 09:40:09;;;;;;;9.32;3.70;;;;;;;13.86;89.51;102279.78;7392726;19;20369;-69
2021/12/14 09:42:43;;;;;;;14.48;5.75;;;;;;;13.86;89.51;102281.59;7391876;19;20155;-69
2021/12/14 09:45:19;;;;;;;15.90;5.22;;;;;;;13.89;89.43;102294.53;7391890;19;20010;-66
2021/12/14 09:47:47;;;;;;;12.02;3.38;;;;;;;13.89;88.81;102286.59;7390296;19;20010;-67
2021/12/14 09:50:23;;;;;;;11.77;4.70;;;;;;;13.92;89.05;102286.31;7387088;19;20568;-69
2021/12/14 09:52:51;;;;;;;14.05;5.18;;;;;;;13.92;88.79;102289.78;7389107;19;20213;-67
2021/12/14 09:55:23;;;;;;;15.25;7.53;;;;;;;13.96;89.42;102293.88;7386256;19;20042;-68
2021/12/14 09:57:55;;;;;;;14.60;5.53;;;;;;;14.04;91.05;102296.63;7390228;19;20090;-67
2021/12/14 10:00:27;;;;;;;10.60;3.50;;;;;;;14.10;90.97;102296.09;7391518;19;20494;-70
2021/12/14 10:03:00;;;;;;;11.30;4.28;;;;;;;14.08;89.69;102308.63;7389219;19;20014;-67
2021/12/14 10:05:37;;;;;;;13.02;5.07;;;;;;;14.05;89.37;102311.56;7390653;19;20011;-69
2021/12/14 10:08:15;;;;;;;16.85;5.70;;;;;;;14.05;88.90;102311.56;7386945;19;20077;-66
2021/12/14 10:10:52;;;;;;;14.98;5.65;;;;;;;14.09;89.76;102305.00;7388573;19;20022;-68
2021/12/14 10:13:20;;;;;;;10.98;5.68;;;;;;;14.11;89.37;102304.88;7389898;19;20090;-69
2021/12/14 10:15:51;;;;;;;13.52;4.05;;;;;;;14.12;88.80;102312.66;7390563;19;20070;-69
2021/12/14 10:18:22;;;;;;;13.93;5.85;;;;;;;14.16;88.88;102317.69;7391579;19;20528;-69
2021/12/14 10:20:54;;;;;;;13.55;3.42;;;;;;;14.16;88.11;102312.38;7390673;19;20037;-71
2021/12/14 10:23:23;;;;;;;8.63;3.13;;;;;;;14.20;88.39;102316.44;7387391;19;20017;-67
2021/12/14 10:25:52;;;;;;;14.93;7.15;;;;;;;14.22;88.39;102310.00;7385037;19;20373;-67
2021/12/14 10:28:22;;;;;;;18.35;4.78;;;;;;;14.24;88.19;102320.47;7387586;19;20016;-69
2021/12/14 10:30:56;;;;;;;12.25;4.32;;;;;;;14.28;88.33;102319.19;7390650;19;20282;-68
2021/12/14 10:33:26;;;;;;;10.52;4.65;;;;;;;14.31;88.64;102324.22;7388104;19;20051;-68
2021/12/14 10:36:00;;;;;;;10.55;3.85;;;;;;;14.30;87.82;102318.09;7387688;19;20015;-69
2021/12/14 10:38:38;;;;;;;11.90;2.80;;;;;;;14.31;87.24;102316.28;7384680;19;20042;-69
2021/12/14 10:43:47;;;;;;;11.00;2.65;;;;;;;14.35;87.15;102320.31;7387051;19;20017;-69
2021/12/14 10:46:20;;;;;;;7.55;2.88;;;;;;;14.32;87.16;102324.09;7387368;19;20025;-68
2021/12/14 10:48:49;;;;;;;12.55;3.20;;;;;;;14.30;86.55;102328.69;7384073;19;20018;-68
2021/12/14 10:51:21;;;;;;;11.00;2.78;;;;;;;14.32;86.77;102316.16;7389736;19;20018;-68
2021/12/14 10:53:51;;;;;;;9.57;3.92;;;;;;;14.36;87.08;102322.88;7386626;19;20002;-67
2021/12/14 10:56:41;;;;;;;9.73;2.47;;;;;;;14.42;87.06;102321.47;7385609;19;20162;-68
2021/12/14 10:59:11;;;;;;;8.98;2.72;;;;;;;14.41;86.63;102320.63;7385695;19;20023;-67
2021/12/14 11:01:40;;;;;;;10.40;4.90;;;;;;;14.44;86.54;102315.06;7385047;19;20452;-69
2021/12/14 11:04:11;;;;;;;7.10;3.78;;;;;;;14.48;87.16;102316.44;7386336;19;20007;-68
2021/12/14 11:06:45;;;;;;;9.50;2.63;;;;;;;14.58;87.66;102310.31;7388658;19;20089;-67
2021/12/14 11:11:59;;;;;;;9.05;2.20;;;;;;;14.58;85.43;102307.66;7389266;19;20010;-68
2021/12/14 11:14:34;;;;;;;7.40;2.40;;;;;;;14.57;84.98;102312.13;7385134;19;20035;-67
2021/12/14 11:19:43;;;;;;;9.65;3.35;;;;;;;14.54;85.03;102310.56;7387810;19;20013;-69
2021/12/14 11:22:13;;;;;;;;;;;;;;;14.55;84.65;102314.91;7387648;19;20444;-67
2021/12/14 11:24:43;;;;;;;8.80;2.50;;;;;;;14.58;85.17;102316.41;7385094;19;19931;-68
2021/12/14 11:27:15;;;;;;;13.57;6.63;;;;;;;14.63;85.13;102310.72;7387746;19;20043;-67
2021/12/14 11:29:43;;;;;;;12.77;2.53;;;;;;;14.63;85.12;102300.94;7383834;19;20019;-67
2021/12/14 11:32:18;;;;;;;5.65;2.45;;;;;;;14.68;85.42;102298.69;7385905;19;20027;-66
2021/12/14 11:34:47;;;;;;;6.75;1.67;;;;;;;14.67;84.52;102301.50;7386680;19;20011;-67
2021/12/14 11:37:21;;;;;;;11.52;5.00;;;;;;;14.70;85.07;102299.38;7386305;19;20014;-68
2021/12/14 11:39:53;;;;;;;7.93;2.33;;;;;;;14.69;83.71;102299.53;7387230;19;20011;-69
2021/12/14 11:42:24;;;;;;;10.10;1.95;;;;;;;14.69;83.25;102300.38;7394512;19;20564;-68
2021/12/14 11:44:54;;;;;;;7.22;1.88;;;;;;;14.65;82.45;102306.94;7391541;19;20093;-70
2021/12/14 11:49:56;;;;;;;11.57;2.63;;;;;;;14.66;82.77;102303.31;7392995;19;20018;-69
2021/12/14 11:52:29;;;;;;;9.60;2.00;;;;;;;14.72;83.95;102308.03;7392848;19;20066;-70
2021/12/14 11:54:57;;;;;;;9.00;2.25;;;;;;;14.75;84.30;102301.59;7393319;19;20546;-67
2021/12/14 11:57:31;;;;;;;12.30;2.33;;;;;;;14.74;82.83;102308.72;7392109;19;20018;-67
2021/12/14 12:00:04;;;;;;;6.45;1.85;;;;;;;14.71;82.21;102305.53;7392955;19;20070;-69
2021/12/14 12:02:32;;;;;;;11.45;3.17;;;;;;;14.76;83.61;102303.28;7392407;19;20483;-68
2021/12/14 12:05:13;;;;;;;10.18;2.38;;;;;;;14.77;83.43;102305.81;7391128;19;20073;-66
2021/12/14 12:10:11;;;;;;;6.55;2.58;;;;;;;14.86;83.08;102293.50;7387970;19;20671;-67
2021/12/14 12:12:40;;;;;;;8.52;2.15;;;;;;;14.90;83.93;102286.91;7391698;19;20033;-67
2021/12/14 12:15:18;;;;;;;7.25;3.45;;;;;;;14.92;83.06;102290.28;7391551;19;20078;-67
2021/12/14 12:17:56;;;;;;;5.95;1.98;;;;;;;14.94;83.21;102285.63;7390270;19;20011;-68
2021/12/14 12:20:27;;;;;;;9.13;3.17;;;;;;;14.94;82.91;102288.28;7389875;19;20521;-67
2021/12/14 12:22:58;;;;;;;16.33;3.08;;;;;;;14.95;82.33;102287.31;7392605;19;20014;-68
2021/12/14 12:25:26;;;;;;;8.20;1.83;;;;;;;14.95;82.56;102285.50;7392090;19;20052;-67
2021/12/14 12:27:57;;;;;;;8.27;2.83;;;;;;;14.91;82.32;102278.00;7391276;19;20086;-68
2021/12/14 12:30:32;;;;;;;5.50;2.00;;;;;;;14.90;81.90;102282.44;7393112;19;20003;-67